sensor_id;sensor_type;location;lat;lon;timestamp;temperature;humidity
28244;DHT22;15510;52.512;13.300;2023-10-09T00:02:10;12.90;99.90
28244;DHT22;15510;52.512;13.300;2023-10-09T00:04:40;12.90;99.90
28244;DHT22;15510;52.512;13.300;2023-10-09T00:07:11;12.90;99.90
28244;DHT22;15510;52.512;13.300;2023-10-09T00:09:38;12.90;99.90
28244;DHT22;15510;52.512;13.300;2023-10-09T00:12:24;12.90;99.90
28244;DHT22;15510;52.512;13.300;2023-10-09T00:14:54;12.90;99.90
28244;DHT22;15510;52.512;13.300;2023-10-09T00:17:32;12.80;99.90
28244;DHT22;15510;52.512;13.300;2023-10-09T00:20:01;12.80;99.90
28244;DHT22;15510;52.512;13.300;2023-10-09T00:22:43;12.70;99.90
28244;DHT22;15510;52.512;13.300;2023-10-09T00:25:12;12.80;99.90
28244;DHT22;15510;52.512;13.300;2023-10-09T00:27:44;12.70;99.90
28244;DHT22;15510;52.512;13.300;2023-10-09T00:30:16;12.70;99.90
28244;DHT22;15510;52.512;13.300;2023-10-09T00:32:44;12.70;99.90
28244;DHT22;15510;52.512;13.300;2023-10-09T00:35:32;12.70;99.90
28244;DHT22;15510;52.512;13.300;2023-10-09T00:38:12;12.60;99.90
28244;DHT22;15510;52.512;13.300;2023-10-09T00:40:50;12.40;99.90
28244;DHT22;15510;52.512;13.300;2023-10-09T00:43:28;12.50;99.90
28244;DHT22;15510;52.512;13.300;2023-10-09T00:46:00;12.40;99.90
28244;DHT22;15510;52.512;13.300;2023-10-09T00:48:37;12.40;99.90
28244;DHT22;15510;52.512;13.300;2023-10-09T00:51:05;12.40;99.90
28244;DHT22;15510;52.512;13.300;2023-10-09T00:53:46;12.30;99.90
28244;DHT22;15510;52.512;13.300;2023-10-09T00:56:24;12.30;99.90
28244;DHT22;15510;52.512;13.300;2023-10-09T00:58:57;12.30;99.90
28244;DHT22;15510;52.512;13.300;2023-10-09T01:01:38;12.30;99.90
28244;DHT22;15510;52.512;13.300;2023-10-09T01:04:06;12.30;99.90
28244;DHT22;15510;52.512;13.300;2023-10-09T01:06:41;12.30;99.90
28244;DHT22;15510;52.512;13.300;2023-10-09T01:09:15;12.30;99.90
28244;DHT22;15510;52.512;13.300;2023-10-09T01:11:42;12.30;99.90
28244;DHT22;15510;52.512;13.300;2023-10-09T01:14:30;12.30;99.90
28244;DHT22;15510;52.512;13.300;2023-10-09T01:16:57;12.30;99.90
28244;DHT22;15510;52.512;13.300;2023-10-09T01:19:26;12.30;99.90
28244;DHT22;15510;52.512;13.300;2023-10-09T01:21:56;12.20;99.90
28244;DHT22;15510;52.512;13.300;2023-10-09T01:24:30;12.20;99.90
28244;DHT22;15510;52.512;13.300;2023-10-09T01:27:04;12.20;99.90
28244;DHT22;15510;52.512;13.300;2023-10-09T01:29:36;12.20;99.90
28244;DHT22;15510;52.512;13.300;2023-10-09T01:32:04;12.30;99.90
28244;DHT22;15510;52.512;13.300;2023-10-09T01:34:36;12.30;99.90
28244;DHT22;15510;52.512;13.300;2023-10-09T01:37:13;12.30;99.90
28244;DHT22;15510;52.512;13.300;2023-10-09T01:39:51;12.20;99.90
28244;DHT22;15510;52.512;13.300;2023-10-09T01:42:19;12.20;99.90
28244;DHT22;15510;52.512;13.300;2023-10-09T01:45:03;12.20;99.90
28244;DHT22;15510;52.512;13.300;2023-10-09T01:47:41;12.20;99.90
28244;DHT22;15510;52.512;13.300;2023-10-09T01:50:11;12.10;99.90
28244;DHT22;15510;52.512;13.300;2023-10-09T01:52:45;12.10;99.90
28244;DHT22;15510;52.512;13.300;2023-10-09T01:55:11;12.10;99.90
28244;DHT22;15510;52.512;13.300;2023-10-09T01:57:56;12.10;99.90
28244;DHT22;15510;52.512;13.300;2023-10-09T02:00:28;12.10;99.90
28244;DHT22;15510;52.512;13.300;2023-10-09T02:02:56;12.10;99.90
28244;DHT22;15510;52.512;13.300;2023-10-09T02:05:23;12.20;99.90
28244;DHT22;15510;52.512;13.300;2023-10-09T02:07:51;12.20;99.90
28244;DHT22;15510;52.512;13.300;2023-10-09T02:10:22;12.20;99.90
28244;DHT22;15510;52.512;13.300;2023-10-09T02:12:58;12.10;99.90
28244;DHT22;15510;52.512;13.300;2023-10-09T02:15:28;12.10;99.90
28244;DHT22;15510;52.512;13.300;2023-10-09T02:18:18;12.10;99.90
28244;DHT22;15510;52.512;13.300;2023-10-09T02:21:06;12.10;99.90
28244;DHT22;15510;52.512;13.300;2023-10-09T02:23:34;12.00;99.90
28244;DHT22;15510;52.512;13.300;2023-10-09T02:26:10;12.00;99.90
28244;DHT22;15510;52.512;13.300;2023-10-09T02:29:00;12.00;99.90
28244;DHT22;15510;52.512;13.300;2023-10-09T02:31:29;12.00;99.90
28244;DHT22;15510;52.512;13.300;2023-10-09T02:34:21;11.90;99.90
28244;DHT22;15510;52.512;13.300;2023-10-09T02:36:50;11.90;99.90
28244;DHT22;15510;52.512;13.300;2023-10-09T02:39:26;11.90;99.90
28244;DHT22;15510;52.512;13.300;2023-10-09T02:41:58;11.80;99.90
28244;DHT22;15510;52.512;13.300;2023-10-09T02:44:28;11.70;99.90
28244;DHT22;15510;52.512;13.300;2023-10-09T02:46:57;11.80;99.90
28244;DHT22;15510;52.512;13.300;2023-10-09T02:49:24;11.70;99.90
28244;DHT22;15510;52.512;13.300;2023-10-09T02:51:52;11.80;99.90
28244;DHT22;15510;52.512;13.300;2023-10-09T02:54:19;11.80;99.90
28244;DHT22;15510;52.512;13.300;2023-10-09T02:56:51;11.70;99.90
28244;DHT22;15510;52.512;13.300;2023-10-09T02:59:44;11.70;99.90
28244;DHT22;15510;52.512;13.300;2023-10-09T03:02:10;11.70;99.90
28244;DHT22;15510;52.512;13.300;2023-10-09T03:04:36;11.60;99.90
28244;DHT22;15510;52.512;13.300;2023-10-09T03:07:07;11.50;99.90
28244;DHT22;15510;52.512;13.300;2023-10-09T03:09:36;11.50;99.90
28244;DHT22;15510;52.512;13.300;2023-10-09T03:12:03;11.50;99.90
28244;DHT22;15510;52.512;13.300;2023-10-09T03:14:37;11.60;99.90
28244;DHT22;15510;52.512;13.300;2023-10-09T03:17:07;11.60;99.90
28244;DHT22;15510;52.512;13.300;2023-10-09T03:19:37;11.60;99.90
28244;DHT22;15510;52.512;13.300;2023-10-09T03:22:04;11.60;99.90
28244;DHT22;15510;52.512;13.300;2023-10-09T03:24:30;11.60;99.90
28244;DHT22;15510;52.512;13.300;2023-10-09T03:27:02;11.50;99.90
28244;DHT22;15510;52.512;13.300;2023-10-09T03:29:28;11.60;99.90
28244;DHT22;15510;52.512;13.300;2023-10-09T03:31:53;11.70;99.90
28244;DHT22;15510;52.512;13.300;2023-10-09T03:34:21;11.60;99.90
28244;DHT22;15510;52.512;13.300;2023-10-09T03:36:47;11.60;99.90
28244;DHT22;15510;52.512;13.300;2023-10-09T03:39:14;11.60;99.90
28244;DHT22;15510;52.512;13.300;2023-10-09T03:42:06;11.50;99.90
28244;DHT22;15510;52.512;13.300;2023-10-09T03:44:38;11.50;99.90
28244;DHT22;15510;52.512;13.300;2023-10-09T03:47:07;11.40;99.90
28244;DHT22;15510;52.512;13.300;2023-10-09T03:49:36;11.50;99.90
28244;DHT22;15510;52.512;13.300;2023-10-09T03:52:05;11.50;99.90
28244;DHT22;15510;52.512;13.300;2023-10-09T03:54:33;11.50;99.90
28244;DHT22;15510;52.512;13.300;2023-10-09T03:57:01;11.50;99.90
28244;DHT22;15510;52.512;13.300;2023-10-09T03:59:28;11.50;99.90
28244;DHT22;15510;52.512;13.300;2023-10-09T04:01:57;11.60;99.90
28244;DHT22;15510;52.512;13.300;2023-10-09T04:04:24;11.50;99.90
28244;DHT22;15510;52.512;13.300;2023-10-09T04:06:51;11.60;99.90
28244;DHT22;15510;52.512;13.300;2023-10-09T04:09:22;11.60;99.90
28244;DHT22;15510;52.512;13.300;2023-10-09T04:11:52;11.60;99.90
28244;DHT22;15510;52.512;13.300;2023-10-09T04:14:40;11.50;99.90
28244;DHT22;15510;52.512;13.300;2023-10-09T04:17:27;11.50;99.90
28244;DHT22;15510;52.512;13.300;2023-10-09T04:19:59;11.40;99.90
28244;DHT22;15510;52.512;13.300;2023-10-09T04:22:41;11.40;99.90
28244;DHT22;15510;52.512;13.300;2023-10-09T04:25:25;11.40;99.90
28244;DHT22;15510;52.512;13.300;2023-10-09T04:27:53;11.30;99.90
28244;DHT22;15510;52.512;13.300;2023-10-09T04:30:19;11.30;99.90
28244;DHT22;15510;52.512;13.300;2023-10-09T04:32:45;11.30;99.90
28244;DHT22;15510;52.512;13.300;2023-10-09T04:35:12;11.40;99.90
28244;DHT22;15510;52.512;13.300;2023-10-09T04:37:47;11.40;99.90
28244;DHT22;15510;52.512;13.300;2023-10-09T04:40:18;11.40;99.90
28244;DHT22;15510;52.512;13.300;2023-10-09T04:43:16;11.40;99.90
28244;DHT22;15510;52.512;13.300;2023-10-09T04:45:48;11.40;99.90
28244;DHT22;15510;52.512;13.300;2023-10-09T04:48:37;11.50;99.90
28244;DHT22;15510;52.512;13.300;2023-10-09T04:51:07;11.40;99.90
28244;DHT22;15510;52.512;13.300;2023-10-09T04:54:08;11.50;99.90
28244;DHT22;15510;52.512;13.300;2023-10-09T04:56:43;11.50;99.90
28244;DHT22;15510;52.512;13.300;2023-10-09T04:59:18;11.60;99.90
28244;DHT22;15510;52.512;13.300;2023-10-09T05:01:44;11.60;99.90
28244;DHT22;15510;52.512;13.300;2023-10-09T05:04:12;11.60;99.90
28244;DHT22;15510;52.512;13.300;2023-10-09T05:07:10;11.70;99.90
28244;DHT22;15510;52.512;13.300;2023-10-09T05:10:13;11.70;99.90
28244;DHT22;15510;52.512;13.300;2023-10-09T05:12:43;11.50;99.90
28244;DHT22;15510;52.512;13.300;2023-10-09T05:15:23;11.50;99.90
28244;DHT22;15510;52.512;13.300;2023-10-09T05:17:53;11.50;99.90
28244;DHT22;15510;52.512;13.300;2023-10-09T05:20:27;11.50;99.90
28244;DHT22;15510;52.512;13.300;2023-10-09T05:22:53;11.40;99.90
28244;DHT22;15510;52.512;13.300;2023-10-09T05:25:37;11.40;99.90
28244;DHT22;15510;52.512;13.300;2023-10-09T05:28:19;11.50;99.90
28244;DHT22;15510;52.512;13.300;2023-10-09T05:31:00;11.40;99.90
28244;DHT22;15510;52.512;13.300;2023-10-09T05:33:35;11.40;99.90
28244;DHT22;15510;52.512;13.300;2023-10-09T05:36:06;11.40;99.90
28244;DHT22;15510;52.512;13.300;2023-10-09T05:38:50;11.40;99.90
28244;DHT22;15510;52.512;13.300;2023-10-09T05:41:44;11.40;99.90
28244;DHT22;15510;52.512;13.300;2023-10-09T05:44:33;11.50;99.90
28244;DHT22;15510;52.512;13.300;2023-10-09T05:47:20;11.60;99.90
28244;DHT22;15510;52.512;13.300;2023-10-09T05:49:57;11.60;99.90
28244;DHT22;15510;52.512;13.300;2023-10-09T05:52:54;11.50;99.90
28244;DHT22;15510;52.512;13.300;2023-10-09T05:55:23;11.60;99.90
28244;DHT22;15510;52.512;13.300;2023-10-09T05:57:56;11.50;99.90
28244;DHT22;15510;52.512;13.300;2023-10-09T06:00:40;11.50;99.90
28244;DHT22;15510;52.512;13.300;2023-10-09T06:03:27;11.40;99.90
28244;DHT22;15510;52.512;13.300;2023-10-09T06:06:11;11.50;99.90
28244;DHT22;15510;52.512;13.300;2023-10-09T06:08:44;11.50;99.90
28244;DHT22;15510;52.512;13.300;2023-10-09T06:11:13;11.50;99.90
28244;DHT22;15510;52.512;13.300;2023-10-09T06:13:59;11.40;99.90
28244;DHT22;15510;52.512;13.300;2023-10-09T06:16:38;11.40;99.90
28244;DHT22;15510;52.512;13.300;2023-10-09T06:19:11;11.40;99.90
28244;DHT22;15510;52.512;13.300;2023-10-09T06:21:41;11.60;99.90
28244;DHT22;15510;52.512;13.300;2023-10-09T06:24:26;11.60;99.90
28244;DHT22;15510;52.512;13.300;2023-10-09T06:27:00;11.40;99.90
28244;DHT22;15510;52.512;13.300;2023-10-09T06:29:26;11.40;99.90
28244;DHT22;15510;52.512;13.300;2023-10-09T06:32:12;11.40;99.90
28244;DHT22;15510;52.512;13.300;2023-10-09T06:34:48;11.50;99.90
28244;DHT22;15510;52.512;13.300;2023-10-09T06:37:18;11.60;99.90
28244;DHT22;15510;52.512;13.300;2023-10-09T06:39:56;11.60;99.90
28244;DHT22;15510;52.512;13.300;2023-10-09T06:42:30;11.60;99.90
28244;DHT22;15510;52.512;13.300;2023-10-09T06:45:07;11.60;99.90
28244;DHT22;15510;52.512;13.300;2023-10-09T06:47:35;11.70;99.90
28244;DHT22;15510;52.512;13.300;2023-10-09T06:50:15;11.70;99.90
28244;DHT22;15510;52.512;13.300;2023-10-09T06:52:49;11.80;99.90
28244;DHT22;15510;52.512;13.300;2023-10-09T06:55:44;11.80;99.90
28244;DHT22;15510;52.512;13.300;2023-10-09T06:58:32;11.80;99.90
28244;DHT22;15510;52.512;13.300;2023-10-09T07:01:08;11.90;99.90
28244;DHT22;15510;52.512;13.300;2023-10-09T07:03:55;11.90;99.90
28244;DHT22;15510;52.512;13.300;2023-10-09T07:06:41;11.90;99.90
28244;DHT22;15510;52.512;13.300;2023-10-09T07:09:07;12.00;99.90
28244;DHT22;15510;52.512;13.300;2023-10-09T07:11:40;12.00;99.90
28244;DHT22;15510;52.512;13.300;2023-10-09T07:14:06;12.10;99.90
28244;DHT22;15510;52.512;13.300;2023-10-09T07:16:36;12.10;99.90
28244;DHT22;15510;52.512;13.300;2023-10-09T07:19:06;12.10;99.90
28244;DHT22;15510;52.512;13.300;2023-10-09T07:21:57;12.10;99.90
28244;DHT22;15510;52.512;13.300;2023-10-09T07:24:31;12.10;99.90
28244;DHT22;15510;52.512;13.300;2023-10-09T07:27:12;12.10;99.90
28244;DHT22;15510;52.512;13.300;2023-10-09T07:29:41;12.10;99.90
28244;DHT22;15510;52.512;13.300;2023-10-09T07:32:14;12.20;99.90
28244;DHT22;15510;52.512;13.300;2023-10-09T07:34:46;12.20;99.90
28244;DHT22;15510;52.512;13.300;2023-10-09T07:37:28;12.30;99.90
28244;DHT22;15510;52.512;13.300;2023-10-09T07:39:57;12.20;99.90
28244;DHT22;15510;52.512;13.300;2023-10-09T07:42:24;12.20;99.90
28244;DHT22;15510;52.512;13.300;2023-10-09T07:45:00;12.20;99.90
28244;DHT22;15510;52.512;13.300;2023-10-09T07:47:37;12.30;99.90
28244;DHT22;15510;52.512;13.300;2023-10-09T07:50:21;12.30;99.90
28244;DHT22;15510;52.512;13.300;2023-10-09T07:52:47;12.30;99.90
28244;DHT22;15510;52.512;13.300;2023-10-09T07:55:16;12.20;99.90
28244;DHT22;15510;52.512;13.300;2023-10-09T07:57:53;12.20;99.90
28244;DHT22;15510;52.512;13.300;2023-10-09T08:00:18;12.20;99.90
28244;DHT22;15510;52.512;13.300;2023-10-09T08:03:14;12.30;99.90
28244;DHT22;15510;52.512;13.300;2023-10-09T08:05:50;12.40;99.90
28244;DHT22;15510;52.512;13.300;2023-10-09T08:08:18;12.40;99.90
28244;DHT22;15510;52.512;13.300;2023-10-09T08:10:59;12.50;99.90
28244;DHT22;15510;52.512;13.300;2023-10-09T08:13:43;12.60;99.90
28244;DHT22;15510;52.512;13.300;2023-10-09T08:16:15;12.60;99.90
28244;DHT22;15510;52.512;13.300;2023-10-09T08:18:48;12.50;99.90
28244;DHT22;15510;52.512;13.300;2023-10-09T08:21:19;12.60;99.90
28244;DHT22;15510;52.512;13.300;2023-10-09T08:24:04;12.60;99.90
28244;DHT22;15510;52.512;13.300;2023-10-09T08:26:54;12.50;99.90
28244;DHT22;15510;52.512;13.300;2023-10-09T08:29:39;12.50;99.90
28244;DHT22;15510;52.512;13.300;2023-10-09T08:32:12;12.60;99.90
28244;DHT22;15510;52.512;13.300;2023-10-09T08:34:44;12.60;99.90
28244;DHT22;15510;52.512;13.300;2023-10-09T08:37:19;12.60;99.90
28244;DHT22;15510;52.512;13.300;2023-10-09T08:39:45;12.60;99.90
28244;DHT22;15510;52.512;13.300;2023-10-09T08:42:13;12.60;99.90
28244;DHT22;15510;52.512;13.300;2023-10-09T08:44:41;12.60;99.90
28244;DHT22;15510;52.512;13.300;2023-10-09T08:47:10;12.60;99.90
28244;DHT22;15510;52.512;13.300;2023-10-09T08:49:39;12.60;99.90
28244;DHT22;15510;52.512;13.300;2023-10-09T08:52:05;12.60;99.90
28244;DHT22;15510;52.512;13.300;2023-10-09T08:54:31;12.60;99.90
28244;DHT22;15510;52.512;13.300;2023-10-09T08:57:00;12.60;99.90
28244;DHT22;15510;52.512;13.300;2023-10-09T08:59:26;12.50;99.90
28244;DHT22;15510;52.512;13.300;2023-10-09T09:01:53;12.60;99.90
28244;DHT22;15510;52.512;13.300;2023-10-09T09:04:51;12.60;99.90
28244;DHT22;15510;52.512;13.300;2023-10-09T09:07:28;12.70;99.90
28244;DHT22;15510;52.512;13.300;2023-10-09T09:09:58;12.70;99.90
28244;DHT22;15510;52.512;13.300;2023-10-09T09:12:29;12.70;99.90
28244;DHT22;15510;52.512;13.300;2023-10-09T09:15:03;12.70;99.90
28244;DHT22;15510;52.512;13.300;2023-10-09T09:17:33;12.70;99.90
28244;DHT22;15510;52.512;13.300;2023-10-09T09:19:59;12.80;99.90
28244;DHT22;15510;52.512;13.300;2023-10-09T09:22:25;12.80;99.90
28244;DHT22;15510;52.512;13.300;2023-10-09T09:24:58;12.70;99.90
28244;DHT22;15510;52.512;13.300;2023-10-09T09:27:44;12.80;99.90
28244;DHT22;15510;52.512;13.300;2023-10-09T09:30:30;12.90;99.90
28244;DHT22;15510;52.512;13.300;2023-10-09T09:33:20;12.90;99.90
28244;DHT22;15510;52.512;13.300;2023-10-09T09:36:07;12.90;99.90
28244;DHT22;15510;52.512;13.300;2023-10-09T09:38:34;12.80;99.90
28244;DHT22;15510;52.512;13.300;2023-10-09T09:41:17;12.80;99.90
28244;DHT22;15510;52.512;13.300;2023-10-09T09:43:53;12.90;99.90
28244;DHT22;15510;52.512;13.300;2023-10-09T09:46:31;12.90;99.90
28244;DHT22;15510;52.512;13.300;2023-10-09T09:49:04;12.90;99.90
28244;DHT22;15510;52.512;13.300;2023-10-09T09:51:45;12.90;99.90
28244;DHT22;15510;52.512;13.300;2023-10-09T09:54:13;12.80;99.90
28244;DHT22;15510;52.512;13.300;2023-10-09T09:56:45;12.80;99.90
28244;DHT22;15510;52.512;13.300;2023-10-09T09:59:25;12.90;99.90
28244;DHT22;15510;52.512;13.300;2023-10-09T10:01:55;12.90;99.90
28244;DHT22;15510;52.512;13.300;2023-10-09T10:04:32;13.00;99.90
28244;DHT22;15510;52.512;13.300;2023-10-09T10:07:01;13.00;99.90
28244;DHT22;15510;52.512;13.300;2023-10-09T10:09:41;12.90;99.90
28244;DHT22;15510;52.512;13.300;2023-10-09T10:12:11;12.90;99.90
28244;DHT22;15510;52.512;13.300;2023-10-09T10:14:56;12.90;99.90
28244;DHT22;15510;52.512;13.300;2023-10-09T10:20:25;12.90;99.90
28244;DHT22;15510;52.512;13.300;2023-10-09T10:23:14;12.80;99.90
28244;DHT22;15510;52.512;13.300;2023-10-09T10:25:43;12.80;99.90
28244;DHT22;15510;52.512;13.300;2023-10-09T10:28:24;12.80;99.90
28244;DHT22;15510;52.512;13.300;2023-10-09T10:31:11;12.80;99.90
28244;DHT22;15510;52.512;13.300;2023-10-09T10:36:24;12.70;99.90
28244;DHT22;15510;52.512;13.300;2023-10-09T10:39:16;12.70;99.90
28244;DHT22;15510;52.512;13.300;2023-10-09T10:41:53;12.80;99.90
28244;DHT22;15510;52.512;13.300;2023-10-09T10:44:30;12.80;99.90
28244;DHT22;15510;52.512;13.300;2023-10-09T10:47:07;12.80;99.90
28244;DHT22;15510;52.512;13.300;2023-10-09T10:49:52;12.90;99.90
28244;DHT22;15510;52.512;13.300;2023-10-09T10:52:24;12.90;99.90
28244;DHT22;15510;52.512;13.300;2023-10-09T10:55:14;12.90;99.90
28244;DHT22;15510;52.512;13.300;2023-10-09T10:58:03;13.00;99.90
28244;DHT22;15510;52.512;13.300;2023-10-09T11:00:39;13.10;99.90
28244;DHT22;15510;52.512;13.300;2023-10-09T11:03:24;13.20;99.90
28244;DHT22;15510;52.512;13.300;2023-10-09T11:06:03;13.30;99.90
28244;DHT22;15510;52.512;13.300;2023-10-09T11:08:44;13.30;99.90
28244;DHT22;15510;52.512;13.300;2023-10-09T11:11:20;13.30;99.90
28244;DHT22;15510;52.512;13.300;2023-10-09T11:13:46;13.30;99.90
28244;DHT22;15510;52.512;13.300;2023-10-09T11:16:36;13.20;99.90
28244;DHT22;15510;52.512;13.300;2023-10-09T11:19:12;13.20;99.90
28244;DHT22;15510;52.512;13.300;2023-10-09T11:21:58;13.20;99.90
28244;DHT22;15510;52.512;13.300;2023-10-09T11:24:48;13.30;99.90
28244;DHT22;15510;52.512;13.300;2023-10-09T11:27:27;13.30;99.90
28244;DHT22;15510;52.512;13.300;2023-10-09T11:29:58;13.40;99.90
28244;DHT22;15510;52.512;13.300;2023-10-09T11:32:31;13.60;99.90
28244;DHT22;15510;52.512;13.300;2023-10-09T11:35:15;13.60;99.90
28244;DHT22;15510;52.512;13.300;2023-10-09T11:37:55;13.70;99.90
28244;DHT22;15510;52.512;13.300;2023-10-09T11:40:36;13.70;99.90
28244;DHT22;15510;52.512;13.300;2023-10-09T11:43:28;13.70;99.90
28244;DHT22;15510;52.512;13.300;2023-10-09T11:46:17;13.80;99.90
28244;DHT22;15510;52.512;13.300;2023-10-09T11:49:06;13.90;99.90
28244;DHT22;15510;52.512;13.300;2023-10-09T11:51:52;13.90;99.90
28244;DHT22;15510;52.512;13.300;2023-10-09T11:54:36;14.00;99.90
28244;DHT22;15510;52.512;13.300;2023-10-09T11:57:03;14.00;99.90
28244;DHT22;15510;52.512;13.300;2023-10-09T11:59:30;14.10;99.90
28244;DHT22;15510;52.512;13.300;2023-10-09T12:02:12;14.00;99.90
28244;DHT22;15510;52.512;13.300;2023-10-09T12:04:41;14.10;99.90
28244;DHT22;15510;52.512;13.300;2023-10-09T12:07:10;14.10;99.90
28244;DHT22;15510;52.512;13.300;2023-10-09T12:09:39;14.00;99.90
28244;DHT22;15510;52.512;13.300;2023-10-09T12:12:07;14.00;99.90
28244;DHT22;15510;52.512;13.300;2023-10-09T12:14:33;13.90;99.90
28244;DHT22;15510;52.512;13.300;2023-10-09T12:17:00;13.80;99.90
28244;DHT22;15510;52.512;13.300;2023-10-09T12:19:39;13.80;99.90
28244;DHT22;15510;52.512;13.300;2023-10-09T12:22:07;13.70;99.90
28244;DHT22;15510;52.512;13.300;2023-10-09T12:24:36;13.60;99.90
28244;DHT22;15510;52.512;13.300;2023-10-09T12:27:03;13.60;99.90
28244;DHT22;15510;52.512;13.300;2023-10-09T12:29:35;13.60;99.90
28244;DHT22;15510;52.512;13.300;2023-10-09T12:32:01;13.60;99.90
28244;DHT22;15510;52.512;13.300;2023-10-09T12:34:28;13.60;99.90
28244;DHT22;15510;52.512;13.300;2023-10-09T12:36:56;13.60;99.90
28244;DHT22;15510;52.512;13.300;2023-10-09T12:39:26;13.60;99.90
28244;DHT22;15510;52.512;13.300;2023-10-09T12:41:59;13.60;99.90
28244;DHT22;15510;52.512;13.300;2023-10-09T12:44:35;13.60;99.90
28244;DHT22;15510;52.512;13.300;2023-10-09T12:47:11;13.60;99.90
28244;DHT22;15510;52.512;13.300;2023-10-09T12:49:37;13.60;99.90
28244;DHT22;15510;52.512;13.300;2023-10-09T12:52:09;13.70;99.90
28244;DHT22;15510;52.512;13.300;2023-10-09T12:54:55;13.70;99.90
28244;DHT22;15510;52.512;13.300;2023-10-09T12:57:21;13.60;99.90
28244;DHT22;15510;52.512;13.300;2023-10-09T12:59:50;13.70;99.90
28244;DHT22;15510;52.512;13.300;2023-10-09T13:02:16;13.70;99.90
28244;DHT22;15510;52.512;13.300;2023-10-09T13:04:57;13.70;99.90
28244;DHT22;15510;52.512;13.300;2023-10-09T13:07:25;13.70;99.90
28244;DHT22;15510;52.512;13.300;2023-10-09T13:09:51;13.60;99.90
28244;DHT22;15510;52.512;13.300;2023-10-09T13:12:35;13.60;99.90
28244;DHT22;15510;52.512;13.300;2023-10-09T13:15:08;13.60;99.90
28244;DHT22;15510;52.512;13.300;2023-10-09T13:17:36;13.50;99.90
28244;DHT22;15510;52.512;13.300;2023-10-09T13:20:05;13.30;99.90
28244;DHT22;15510;52.512;13.300;2023-10-09T13:22:42;13.20;99.90
28244;DHT22;15510;52.512;13.300;2023-10-09T13:25:09;13.30;99.90
28244;DHT22;15510;52.512;13.300;2023-10-09T13:27:44;13.30;99.90
28244;DHT22;15510;52.512;13.300;2023-10-09T13:30:19;13.30;99.90
28244;DHT22;15510;52.512;13.300;2023-10-09T13:32:49;13.30;99.90
28244;DHT22;15510;52.512;13.300;2023-10-09T13:35:22;13.30;99.90
28244;DHT22;15510;52.512;13.300;2023-10-09T13:38:03;13.40;99.90
28244;DHT22;15510;52.512;13.300;2023-10-09T13:40:33;13.40;99.90
28244;DHT22;15510;52.512;13.300;2023-10-09T13:43:03;13.40;99.90
28244;DHT22;15510;52.512;13.300;2023-10-09T13:45:28;13.40;99.90
28244;DHT22;15510;52.512;13.300;2023-10-09T13:47:59;13.40;99.90
28244;DHT22;15510;52.512;13.300;2023-10-09T13:50:28;13.40;99.90
28244;DHT22;15510;52.512;13.300;2023-10-09T13:53:11;13.30;99.90
28244;DHT22;15510;52.512;13.300;2023-10-09T13:55:38;13.30;99.90
28244;DHT22;15510;52.512;13.300;2023-10-09T13:58:10;13.30;99.90
28244;DHT22;15510;52.512;13.300;2023-10-09T14:00:40;13.20;99.90
28244;DHT22;15510;52.512;13.300;2023-10-09T14:03:08;13.20;99.90
28244;DHT22;15510;52.512;13.300;2023-10-09T14:05:39;13.20;99.90
28244;DHT22;15510;52.512;13.300;2023-10-09T14:08:23;13.10;99.90
28244;DHT22;15510;52.512;13.300;2023-10-09T14:10:51;13.20;99.90
28244;DHT22;15510;52.512;13.300;2023-10-09T14:13:17;13.20;99.90
28244;DHT22;15510;52.512;13.300;2023-10-09T14:15:52;13.20;99.90
28244;DHT22;15510;52.512;13.300;2023-10-09T14:18:22;13.20;99.90
28244;DHT22;15510;52.512;13.300;2023-10-09T14:20:48;13.30;99.90
28244;DHT22;15510;52.512;13.300;2023-10-09T14:23:15;13.40;99.90
28244;DHT22;15510;52.512;13.300;2023-10-09T14:25:46;13.50;99.90
28244;DHT22;15510;52.512;13.300;2023-10-09T14:28:15;13.40;99.90
28244;DHT22;15510;52.512;13.300;2023-10-09T14:30:45;13.30;99.90
28244;DHT22;15510;52.512;13.300;2023-10-09T14:33:16;13.30;99.90
28244;DHT22;15510;52.512;13.300;2023-10-09T14:35:51;13.40;99.90
28244;DHT22;15510;52.512;13.300;2023-10-09T14:38:18;13.40;99.90
28244;DHT22;15510;52.512;13.300;2023-10-09T14:40:47;13.40;99.90
28244;DHT22;15510;52.512;13.300;2023-10-09T14:43:14;13.40;99.90
28244;DHT22;15510;52.512;13.300;2023-10-09T14:45:48;13.40;99.90
28244;DHT22;15510;52.512;13.300;2023-10-09T14:48:17;13.40;99.90
28244;DHT22;15510;52.512;13.300;2023-10-09T14:50:54;13.50;99.90
28244;DHT22;15510;52.512;13.300;2023-10-09T14:53:26;13.50;99.90
28244;DHT22;15510;52.512;13.300;2023-10-09T14:55:59;13.50;99.90
28244;DHT22;15510;52.512;13.300;2023-10-09T14:58:37;13.50;99.90
28244;DHT22;15510;52.512;13.300;2023-10-09T15:01:08;13.50;99.90
28244;DHT22;15510;52.512;13.300;2023-10-09T15:03:44;13.60;99.90
28244;DHT22;15510;52.512;13.300;2023-10-09T15:06:22;13.60;99.90
28244;DHT22;15510;52.512;13.300;2023-10-09T15:08:57;13.60;99.90
28244;DHT22;15510;52.512;13.300;2023-10-09T15:11:29;13.50;99.90
28244;DHT22;15510;52.512;13.300;2023-10-09T15:13:55;13.40;99.90
28244;DHT22;15510;52.512;13.300;2023-10-09T15:16:24;13.30;99.90
28244;DHT22;15510;52.512;13.300;2023-10-09T15:18:53;13.30;99.90
28244;DHT22;15510;52.512;13.300;2023-10-09T15:21:20;13.30;99.90
28244;DHT22;15510;52.512;13.300;2023-10-09T15:23:54;13.30;99.90
28244;DHT22;15510;52.512;13.300;2023-10-09T15:26:20;13.20;99.90
28244;DHT22;15510;52.512;13.300;2023-10-09T15:28:48;13.20;99.90
28244;DHT22;15510;52.512;13.300;2023-10-09T15:31:15;13.20;99.90
28244;DHT22;15510;52.512;13.300;2023-10-09T15:33:42;13.20;99.90
28244;DHT22;15510;52.512;13.300;2023-10-09T15:36:13;13.20;99.90
28244;DHT22;15510;52.512;13.300;2023-10-09T15:38:40;13.20;99.90
28244;DHT22;15510;52.512;13.300;2023-10-09T15:41:06;13.20;99.90
28244;DHT22;15510;52.512;13.300;2023-10-09T15:43:38;13.30;99.90
28244;DHT22;15510;52.512;13.300;2023-10-09T15:46:11;13.20;99.90
28244;DHT22;15510;52.512;13.300;2023-10-09T15:48:37;13.20;99.90
28244;DHT22;15510;52.512;13.300;2023-10-09T15:51:09;13.10;99.90
28244;DHT22;15510;52.512;13.300;2023-10-09T15:53:37;13.10;99.90
28244;DHT22;15510;52.512;13.300;2023-10-09T15:56:03;13.10;99.90
28244;DHT22;15510;52.512;13.300;2023-10-09T15:58:29;13.10;99.90
28244;DHT22;15510;52.512;13.300;2023-10-09T16:00:55;13.10;99.90
28244;DHT22;15510;52.512;13.300;2023-10-09T16:03:20;13.10;99.90
28244;DHT22;15510;52.512;13.300;2023-10-09T16:05:49;13.10;99.90